sensor_id;sensor_type;location;lat;lon;timestamp;pressure;altitude;pressure_sealevel;temperature;humidity
59873;BME280;50750;51.636;4.948;2022-09-02T00:02:15;101799.50;;;24.60;47.20
59873;BME280;50750;51.636;4.948;2022-09-02T00:04:42;101801.67;;;24.60;47.28
59873;BME280;50750;51.636;4.948;2022-09-02T00:07:09;101799.39;;;24.59;47.23
59873;BME280;50750;51.636;4.948;2022-09-02T00:09:36;101796.92;;;24.59;47.15
59873;BME280;50750;51.636;4.948;2022-09-02T00:12:04;101796.78;;;24.58;47.18
59873;BME280;50750;51.636;4.948;2022-09-02T00:14:35;101792.48;;;24.58;47.12
59873;BME280;50750;51.636;4.948;2022-09-02T00:17:03;101788.23;;;24.57;47.02
59873;BME280;50750;51.636;4.948;2022-09-02T00:19:30;101786.45;;;24.57;47.08
59873;BME280;50750;51.636;4.948;2022-09-02T00:21:59;101787.72;;;24.57;47.24
59873;BME280;50750;51.636;4.948;2022-09-02T00:24:26;101785.48;;;24.56;47.14
59873;BME280;50750;51.636;4.948;2022-09-02T00:26:53;101787.80;;;24.56;47.17
59873;BME280;50750;51.636;4.948;2022-09-02T00:29:20;101785.15;;;24.56;47.26
59873;BME280;50750;51.636;4.948;2022-09-02T00:31:46;101785.52;;;24.56;47.11
59873;BME280;50750;51.636;4.948;2022-09-02T00:34:14;101782.33;;;24.55;47.15
59873;BME280;50750;51.636;4.948;2022-09-02T00:36:40;101780.94;;;24.54;47.04
59873;BME280;50750;51.636;4.948;2022-09-02T00:39:07;101778.26;;;24.54;47.17
59873;BME280;50750;51.636;4.948;2022-09-02T00:41:35;101776.52;;;24.54;47.13
59873;BME280;50750;51.636;4.948;2022-09-02T00:44:04;101779.40;;;24.54;47.26
59873;BME280;50750;51.636;4.948;2022-09-02T00:46:32;101776.77;;;24.53;47.14
59873;BME280;50750;51.636;4.948;2022-09-02T00:49:12;101776.14;;;24.52;47.18
59873;BME280;50750;51.636;4.948;2022-09-02T00:51:46;101774.92;;;24.51;47.12
59873;BME280;50750;51.636;4.948;2022-09-02T00:54:14;101772.65;;;24.51;47.21
59873;BME280;50750;51.636;4.948;2022-09-02T00:56:43;101772.29;;;24.50;47.25
59873;BME280;50750;51.636;4.948;2022-09-02T00:59:21;101769.85;;;24.49;47.22
59873;BME280;50750;51.636;4.948;2022-09-02T01:01:49;101769.00;;;24.49;47.16
59873;BME280;50750;51.636;4.948;2022-09-02T01:04:15;101766.65;;;24.49;47.21
59873;BME280;50750;51.636;4.948;2022-09-02T01:06:42;101766.88;;;24.49;47.23
59873;BME280;50750;51.636;4.948;2022-09-02T01:09:13;101765.16;;;24.48;47.29
59873;BME280;50750;51.636;4.948;2022-09-02T01:11:46;101765.32;;;24.48;47.20
59873;BME280;50750;51.636;4.948;2022-09-02T01:14:14;101760.86;;;24.48;47.19
59873;BME280;50750;51.636;4.948;2022-09-02T01:16:47;101759.64;;;24.47;47.22
59873;BME280;50750;51.636;4.948;2022-09-02T01:19:23;101758.39;;;24.47;47.16
59873;BME280;50750;51.636;4.948;2022-09-02T01:21:52;101758.98;;;24.46;47.15
59873;BME280;50750;51.636;4.948;2022-09-02T01:24:20;101756.48;;;24.46;47.16
59873;BME280;50750;51.636;4.948;2022-09-02T01:26:51;101755.78;;;24.46;47.15
59873;BME280;50750;51.636;4.948;2022-09-02T01:29:18;101757.80;;;24.45;47.17
59873;BME280;50750;51.636;4.948;2022-09-02T01:31:44;101757.27;;;24.45;47.06
59873;BME280;50750;51.636;4.948;2022-09-02T01:34:11;101753.73;;;24.45;47.09
59873;BME280;50750;51.636;4.948;2022-09-02T01:36:40;101753.36;;;24.45;47.08
59873;BME280;50750;51.636;4.948;2022-09-02T01:39:08;101751.95;;;24.45;47.07
59873;BME280;50750;51.636;4.948;2022-09-02T01:41:35;101749.11;;;24.44;47.08
59873;BME280;50750;51.636;4.948;2022-09-02T01:44:03;101748.59;;;24.44;47.01
59873;BME280;50750;51.636;4.948;2022-09-02T01:46:30;101748.27;;;24.43;46.99
59873;BME280;50750;51.636;4.948;2022-09-02T01:48:56;101747.00;;;24.43;46.93
59873;BME280;50750;51.636;4.948;2022-09-02T01:51:23;101745.07;;;24.43;46.92
59873;BME280;50750;51.636;4.948;2022-09-02T01:53:49;101746.52;;;24.42;46.97
59873;BME280;50750;51.636;4.948;2022-09-02T01:56:16;101744.96;;;24.42;46.97
59873;BME280;50750;51.636;4.948;2022-09-02T01:58:42;101744.44;;;24.41;46.98
59873;BME280;50750;51.636;4.948;2022-09-02T02:01:09;101743.23;;;24.41;46.88
59873;BME280;50750;51.636;4.948;2022-09-02T02:03:37;101743.80;;;24.40;46.97
59873;BME280;50750;51.636;4.948;2022-09-02T02:06:09;101741.03;;;24.39;47.05
59873;BME280;50750;51.636;4.948;2022-09-02T02:08:37;101741.58;;;24.39;46.98
59873;BME280;50750;51.636;4.948;2022-09-02T02:11:04;101741.45;;;24.38;46.94
59873;BME280;50750;51.636;4.948;2022-09-02T02:13:32;101738.76;;;24.38;46.94
59873;BME280;50750;51.636;4.948;2022-09-02T02:15:58;101739.89;;;24.38;47.01
59873;BME280;50750;51.636;4.948;2022-09-02T02:18:25;101738.14;;;24.37;47.06
59873;BME280;50750;51.636;4.948;2022-09-02T02:20:51;101731.58;;;24.37;46.83
59873;BME280;50750;51.636;4.948;2022-09-02T02:23:18;101732.80;;;24.37;46.87
59873;BME280;50750;51.636;4.948;2022-09-02T02:25:45;101735.36;;;24.36;46.87
59873;BME280;50750;51.636;4.948;2022-09-02T02:28:12;101735.36;;;24.36;46.99
59873;BME280;50750;51.636;4.948;2022-09-02T02:30:39;101732.89;;;24.36;46.80
59873;BME280;50750;51.636;4.948;2022-09-02T02:33:06;101733.65;;;24.35;46.96
59873;BME280;50750;51.636;4.948;2022-09-02T02:35:32;101732.81;;;24.35;46.86
59873;BME280;50750;51.636;4.948;2022-09-02T02:37:58;101728.36;;;24.34;46.95
59873;BME280;50750;51.636;4.948;2022-09-02T02:40:26;101727.30;;;24.34;46.90
59873;BME280;50750;51.636;4.948;2022-09-02T02:42:53;101727.70;;;24.33;47.01
59873;BME280;50750;51.636;4.948;2022-09-02T02:45:21;101729.71;;;24.33;46.87
59873;BME280;50750;51.636;4.948;2022-09-02T02:47:48;101727.59;;;24.33;46.96
59873;BME280;50750;51.636;4.948;2022-09-02T02:50:17;101728.34;;;24.32;46.99
59873;BME280;50750;51.636;4.948;2022-09-02T02:52:44;101727.46;;;24.32;46.93
59873;BME280;50750;51.636;4.948;2022-09-02T02:55:12;101724.98;;;24.31;46.93
59873;BME280;50750;51.636;4.948;2022-09-02T02:57:40;101722.86;;;24.31;46.98
59873;BME280;50750;51.636;4.948;2022-09-02T03:00:12;101720.55;;;24.31;46.99
59873;BME280;50750;51.636;4.948;2022-09-02T03:02:39;101719.17;;;24.30;46.96
59873;BME280;50750;51.636;4.948;2022-09-02T03:05:07;101713.99;;;24.30;47.04
59873;BME280;50750;51.636;4.948;2022-09-02T03:07:34;101717.12;;;24.29;47.06
59873;BME280;50750;51.636;4.948;2022-09-02T03:10:02;101713.92;;;24.28;46.97
59873;BME280;50750;51.636;4.948;2022-09-02T03:12:29;101713.96;;;24.28;47.10
59873;BME280;50750;51.636;4.948;2022-09-02T03:14:58;101715.77;;;24.28;47.08
59873;BME280;50750;51.636;4.948;2022-09-02T03:17:24;101713.81;;;24.28;46.96
59873;BME280;50750;51.636;4.948;2022-09-02T03:19:51;101713.20;;;24.27;46.92
59873;BME280;50750;51.636;4.948;2022-09-02T03:22:17;101710.70;;;24.26;46.95
59873;BME280;50750;51.636;4.948;2022-09-02T03:24:44;101711.98;;;24.25;46.99
59873;BME280;50750;51.636;4.948;2022-09-02T03:27:10;101712.54;;;24.25;46.94
59873;BME280;50750;51.636;4.948;2022-09-02T03:29:37;101708.11;;;24.24;47.03
59873;BME280;50750;51.636;4.948;2022-09-02T03:32:03;101709.21;;;24.24;47.02
59873;BME280;50750;51.636;4.948;2022-09-02T03:34:31;101709.05;;;24.24;46.92
59873;BME280;50750;51.636;4.948;2022-09-02T03:36:58;101710.15;;;24.24;46.96
59873;BME280;50750;51.636;4.948;2022-09-02T03:39:24;101705.17;;;24.23;47.04
59873;BME280;50750;51.636;4.948;2022-09-02T03:41:51;101703.58;;;24.23;47.06
59873;BME280;50750;51.636;4.948;2022-09-02T03:44:18;101699.54;;;24.22;47.13
59873;BME280;50750;51.636;4.948;2022-09-02T03:46:45;101700.23;;;24.22;46.91
59873;BME280;50750;51.636;4.948;2022-09-02T03:49:12;101697.23;;;24.21;46.92
59873;BME280;50750;51.636;4.948;2022-09-02T03:51:40;101695.14;;;24.21;47.08
59873;BME280;50750;51.636;4.948;2022-09-02T03:54:07;101696.77;;;24.21;47.07
59873;BME280;50750;51.636;4.948;2022-09-02T03:56:35;101689.45;;;24.20;47.00
59873;BME280;50750;51.636;4.948;2022-09-02T03:59:02;101688.39;;;24.20;47.12
59873;BME280;50750;51.636;4.948;2022-09-02T04:01:29;101686.48;;;24.19;47.07
59873;BME280;50750;51.636;4.948;2022-09-02T04:03:55;101684.91;;;24.19;47.07
59873;BME280;50750;51.636;4.948;2022-09-02T04:06:23;101685.27;;;24.19;47.08
59873;BME280;50750;51.636;4.948;2022-09-02T04:08:50;101683.16;;;24.18;46.96
59873;BME280;50750;51.636;4.948;2022-09-02T04:11:19;101681.77;;;24.18;47.11
59873;BME280;50750;51.636;4.948;2022-09-02T04:13:47;101678.59;;;24.17;47.02
59873;BME280;50750;51.636;4.948;2022-09-02T04:16:17;101678.09;;;24.17;47.17
59873;BME280;50750;51.636;4.948;2022-09-02T04:18:45;101678.27;;;24.17;47.07
59873;BME280;50750;51.636;4.948;2022-09-02T04:21:12;101676.33;;;24.16;47.02
59873;BME280;50750;51.636;4.948;2022-09-02T04:23:39;101677.27;;;24.16;47.09
59873;BME280;50750;51.636;4.948;2022-09-02T04:26:08;101675.67;;;24.16;47.11
59873;BME280;50750;51.636;4.948;2022-09-02T04:28:35;101677.17;;;24.15;47.06
59873;BME280;50750;51.636;4.948;2022-09-02T04:31:07;101673.08;;;24.15;46.87
59873;BME280;50750;51.636;4.948;2022-09-02T04:33:34;101672.39;;;24.14;47.01
59873;BME280;50750;51.636;4.948;2022-09-02T04:36:07;101670.83;;;24.14;46.98
59873;BME280;50750;51.636;4.948;2022-09-02T04:38:34;101670.64;;;24.14;47.01
59873;BME280;50750;51.636;4.948;2022-09-02T04:41:09;101667.80;;;24.14;47.03
59873;BME280;50750;51.636;4.948;2022-09-02T04:43:36;101669.11;;;24.13;46.94
59873;BME280;50750;51.636;4.948;2022-09-02T04:46:05;101669.32;;;24.12;46.98
59873;BME280;50750;51.636;4.948;2022-09-02T04:48:32;101670.59;;;24.12;47.00
59873;BME280;50750;51.636;4.948;2022-09-02T04:51:06;101668.46;;;24.12;46.92
59873;BME280;50750;51.636;4.948;2022-09-02T04:53:34;101670.84;;;24.11;47.03
59873;BME280;50750;51.636;4.948;2022-09-02T04:56:05;101668.20;;;24.10;46.85
59873;BME280;50750;51.636;4.948;2022-09-02T04:58:33;101667.70;;;24.10;47.05
59873;BME280;50750;51.636;4.948;2022-09-02T05:01:07;101668.79;;;24.10;47.04
59873;BME280;50750;51.636;4.948;2022-09-02T05:03:35;101667.04;;;24.09;46.94
59873;BME280;50750;51.636;4.948;2022-09-02T05:06:05;101665.64;;;24.09;46.99
59873;BME280;50750;51.636;4.948;2022-09-02T05:08:33;101667.48;;;24.08;46.94
59873;BME280;50750;51.636;4.948;2022-09-02T05:11:05;101669.45;;;24.08;46.98
59873;BME280;50750;51.636;4.948;2022-09-02T05:13:31;101669.86;;;24.07;46.98
59873;BME280;50750;51.636;4.948;2022-09-02T05:15:58;101668.79;;;24.07;47.00
59873;BME280;50750;51.636;4.948;2022-09-02T05:18:25;101666.67;;;24.07;47.02
59873;BME280;50750;51.636;4.948;2022-09-02T05:20:51;101667.25;;;24.06;47.07
59873;BME280;50750;51.636;4.948;2022-09-02T05:23:17;101668.02;;;24.06;46.99
59873;BME280;50750;51.636;4.948;2022-09-02T05:25:44;101668.39;;;24.06;46.94
59873;BME280;50750;51.636;4.948;2022-09-02T05:28:11;101670.77;;;24.05;46.86
59873;BME280;50750;51.636;4.948;2022-09-02T05:30:39;101672.56;;;24.05;46.92
59873;BME280;50750;51.636;4.948;2022-09-02T05:33:07;101674.39;;;24.04;46.89
59873;BME280;50750;51.636;4.948;2022-09-02T05:35:41;101673.74;;;24.03;47.04
59873;BME280;50750;51.636;4.948;2022-09-02T05:38:08;101673.98;;;24.02;47.02
59873;BME280;50750;51.636;4.948;2022-09-02T05:40:36;101673.52;;;24.01;46.94
59873;BME280;50750;51.636;4.948;2022-09-02T05:43:05;101670.52;;;24.01;47.10
59873;BME280;50750;51.636;4.948;2022-09-02T05:45:31;101670.36;;;24.00;47.01
59873;BME280;50750;51.636;4.948;2022-09-02T05:47:59;101672.88;;;24.00;46.95
59873;BME280;50750;51.636;4.948;2022-09-02T05:50:45;101671.17;;;23.99;47.05
59873;BME280;50750;51.636;4.948;2022-09-02T05:53:12;101671.36;;;23.99;47.00
59873;BME280;50750;51.636;4.948;2022-09-02T05:55:39;101673.52;;;23.99;47.05
59873;BME280;50750;51.636;4.948;2022-09-02T05:58:05;101671.02;;;23.99;47.01
59873;BME280;50750;51.636;4.948;2022-09-02T06:00:31;101667.65;;;23.98;47.00
59873;BME280;50750;51.636;4.948;2022-09-02T06:02:58;101670.35;;;23.98;46.94
59873;BME280;50750;51.636;4.948;2022-09-02T06:05:25;101670.02;;;23.98;46.96
59873;BME280;50750;51.636;4.948;2022-09-02T06:07:52;101668.25;;;23.98;47.10
59873;BME280;50750;51.636;4.948;2022-09-02T06:10:19;101665.05;;;23.97;47.08
59873;BME280;50750;51.636;4.948;2022-09-02T06:12:45;101662.92;;;23.97;46.99
59873;BME280;50750;51.636;4.948;2022-09-02T06:15:12;101664.56;;;23.97;46.88
59873;BME280;50750;51.636;4.948;2022-09-02T06:17:40;101664.39;;;23.96;47.00
59873;BME280;50750;51.636;4.948;2022-09-02T06:20:07;101662.98;;;23.96;47.08
59873;BME280;50750;51.636;4.948;2022-09-02T06:22:33;101663.02;;;23.96;47.17
59873;BME280;50750;51.636;4.948;2022-09-02T06:25:00;101662.19;;;23.95;47.16
59873;BME280;50750;51.636;4.948;2022-09-02T06:27:26;101663.63;;;23.95;47.02
59873;BME280;50750;51.636;4.948;2022-09-02T06:29:53;101660.80;;;23.94;47.06
59873;BME280;50750;51.636;4.948;2022-09-02T06:32:19;101664.23;;;23.94;47.08
59873;BME280;50750;51.636;4.948;2022-09-02T06:34:46;101661.39;;;23.94;46.95
59873;BME280;50750;51.636;4.948;2022-09-02T06:37:13;101661.59;;;23.93;47.03
59873;BME280;50750;51.636;4.948;2022-09-02T06:39:39;101661.25;;;23.93;47.09
59873;BME280;50750;51.636;4.948;2022-09-02T06:42:10;101662.52;;;23.93;47.02
59873;BME280;50750;51.636;4.948;2022-09-02T06:44:36;101664.37;;;23.92;47.14
59873;BME280;50750;51.636;4.948;2022-09-02T06:47:03;101665.48;;;23.92;47.03
59873;BME280;50750;51.636;4.948;2022-09-02T06:49:29;101664.56;;;23.92;47.22
59873;BME280;50750;51.636;4.948;2022-09-02T06:51:56;101659.23;;;23.92;47.18
59873;BME280;50750;51.636;4.948;2022-09-02T06:54:25;101659.44;;;23.91;47.25
59873;BME280;50750;51.636;4.948;2022-09-02T06:56:52;101654.44;;;23.91;47.17
59873;BME280;50750;51.636;4.948;2022-09-02T06:59:19;101656.23;;;23.91;47.14
59873;BME280;50750;51.636;4.948;2022-09-02T07:01:46;101657.52;;;23.90;47.21
59873;BME280;50750;51.636;4.948;2022-09-02T07:04:14;101655.20;;;23.90;47.19
59873;BME280;50750;51.636;4.948;2022-09-02T07:06:59;101656.67;;;23.90;47.34
59873;BME280;50750;51.636;4.948;2022-09-02T07:09:26;101655.29;;;23.89;47.29
59873;BME280;50750;51.636;4.948;2022-09-02T07:12:01;101650.85;;;23.89;47.31
59873;BME280;50750;51.636;4.948;2022-09-02T07:14:27;101649.77;;;23.89;47.36
59873;BME280;50750;51.636;4.948;2022-09-02T07:16:55;101647.45;;;23.89;47.35
59873;BME280;50750;51.636;4.948;2022-09-02T07:19:25;101646.59;;;23.88;47.33
59873;BME280;50750;51.636;4.948;2022-09-02T07:21:51;101648.19;;;23.88;47.22
59873;BME280;50750;51.636;4.948;2022-09-02T07:24:18;101647.30;;;23.89;47.23
59873;BME280;50750;51.636;4.948;2022-09-02T07:26:46;101645.70;;;23.88;47.30
59873;BME280;50750;51.636;4.948;2022-09-02T07:29:12;101645.02;;;23.88;47.04
59873;BME280;50750;51.636;4.948;2022-09-02T07:31:41;101643.77;;;23.88;47.21
59873;BME280;50750;51.636;4.948;2022-09-02T07:34:09;101643.44;;;23.87;47.44
59873;BME280;50750;51.636;4.948;2022-09-02T07:36:36;101640.77;;;23.87;47.31
59873;BME280;50750;51.636;4.948;2022-09-02T07:39:05;101642.19;;;23.87;47.35
59873;BME280;50750;51.636;4.948;2022-09-02T07:41:33;101640.80;;;23.87;47.30
59873;BME280;50750;51.636;4.948;2022-09-02T07:44:00;101639.36;;;23.87;47.41
59873;BME280;50750;51.636;4.948;2022-09-02T07:46:27;101636.52;;;23.87;47.36
59873;BME280;50750;51.636;4.948;2022-09-02T07:48:58;101633.83;;;23.87;47.34
59873;BME280;50750;51.636;4.948;2022-09-02T07:51:26;101635.09;;;23.87;47.36
59873;BME280;50750;51.636;4.948;2022-09-02T07:53:53;101636.54;;;23.86;47.48
59873;BME280;50750;51.636;4.948;2022-09-02T07:56:20;101636.39;;;23.86;47.37
59873;BME280;50750;51.636;4.948;2022-09-02T07:58:46;101637.80;;;23.87;47.41
59873;BME280;50750;51.636;4.948;2022-09-02T08:01:13;101637.47;;;23.86;47.38
59873;BME280;50750;51.636;4.948;2022-09-02T08:03:41;101635.14;;;23.86;47.35
59873;BME280;50750;51.636;4.948;2022-09-02T08:06:11;101635.87;;;23.86;47.46
59873;BME280;50750;51.636;4.948;2022-09-02T08:08:38;101633.72;;;23.86;47.41
59873;BME280;50750;51.636;4.948;2022-09-02T08:11:05;101632.83;;;23.86;47.46
59873;BME280;50750;51.636;4.948;2022-09-02T08:13:33;101634.42;;;23.86;47.39
59873;BME280;50750;51.636;4.948;2022-09-02T08:15:59;101630.34;;;23.85;47.36
59873;BME280;50750;51.636;4.948;2022-09-02T08:18:28;101631.73;;;23.86;47.51
59873;BME280;50750;51.636;4.948;2022-09-02T08:20:54;101630.33;;;23.86;47.49
59873;BME280;50750;51.636;4.948;2022-09-02T08:23:21;101629.45;;;23.86;47.46
59873;BME280;50750;51.636;4.948;2022-09-02T08:25:47;101623.54;;;23.86;47.41
59873;BME280;50750;51.636;4.948;2022-09-02T08:28:14;101626.58;;;23.86;47.51
59873;BME280;50750;51.636;4.948;2022-09-02T08:30:40;101625.88;;;23.85;47.51
59873;BME280;50750;51.636;4.948;2022-09-02T08:33:07;101626.94;;;23.86;47.35
59873;BME280;50750;51.636;4.948;2022-09-02T08:35:33;101622.29;;;23.85;47.54
59873;BME280;50750;51.636;4.948;2022-09-02T08:38:00;101622.68;;;23.85;47.44
59873;BME280;50750;51.636;4.948;2022-09-02T08:40:34;101621.42;;;23.85;47.52
59873;BME280;50750;51.636;4.948;2022-09-02T08:43:02;101623.06;;;23.85;47.58
59873;BME280;50750;51.636;4.948;2022-09-02T08:45:35;101623.79;;;23.85;47.52
59873;BME280;50750;51.636;4.948;2022-09-02T08:48:22;101623.39;;;23.85;47.55
59873;BME280;50750;51.636;4.948;2022-09-02T08:50:51;101622.29;;;23.86;47.56
59873;BME280;50750;51.636;4.948;2022-09-02T08:53:28;101623.20;;;23.85;47.59
59873;BME280;50750;51.636;4.948;2022-09-02T08:55:58;101623.02;;;23.85;47.53
59873;BME280;50750;51.636;4.948;2022-09-02T08:58:28;101621.91;;;23.86;47.46
59873;BME280;50750;51.636;4.948;2022-09-02T09:01:22;101621.75;;;23.85;47.59
59873;BME280;50750;51.636;4.948;2022-09-02T09:07:02;101617.45;;;23.86;47.68
59873;BME280;50750;51.636;4.948;2022-09-02T09:18:02;101616.19;;;23.86;47.75
59873;BME280;50750;51.636;4.948;2022-09-02T09:20:37;101613.85;;;23.86;47.66
59873;BME280;50750;51.636;4.948;2022-09-02T09:23:19;101612.95;;;23.86;47.73
59873;BME280;50750;51.636;4.948;2022-09-02T09:25:47;101614.38;;;23.86;47.58
59873;BME280;50750;51.636;4.948;2022-09-02T09:28:16;101607.88;;;23.87;47.66
59873;BME280;50750;51.636;4.948;2022-09-02T09:30:42;101610.53;;;23.87;47.61
59873;BME280;50750;51.636;4.948;2022-09-02T09:33:14;101610.87;;;23.87;47.73
59873;BME280;50750;51.636;4.948;2022-09-02T09:35:53;101609.06;;;23.88;47.64
59873;BME280;50750;51.636;4.948;2022-09-02T09:38:33;101603.48;;;23.88;47.75
59873;BME280;50750;51.636;4.948;2022-09-02T09:41:14;101597.95;;;23.88;47.71
59873;BME280;50750;51.636;4.948;2022-09-02T09:43:42;101599.13;;;23.89;47.66
59873;BME280;50750;51.636;4.948;2022-09-02T09:48:49;101598.58;;;23.89;47.67
59873;BME280;50750;51.636;4.948;2022-09-02T09:51:16;101596.38;;;23.90;47.83
59873;BME280;50750;51.636;4.948;2022-09-02T09:53:44;101596.35;;;23.90;47.89
59873;BME280;50750;51.636;4.948;2022-09-02T10:04:03;101591.59;;;23.92;47.86
59873;BME280;50750;51.636;4.948;2022-09-02T10:09:01;101586.15;;;23.93;47.79
59873;BME280;50750;51.636;4.948;2022-09-02T10:11:31;101586.30;;;23.93;47.96
59873;BME280;50750;51.636;4.948;2022-09-02T10:14:03;101580.39;;;23.93;47.90
59873;BME280;50750;51.636;4.948;2022-09-02T10:16:43;101579.27;;;23.94;47.73
59873;BME280;50750;51.636;4.948;2022-09-02T10:19:30;101580.86;;;23.94;47.83
59873;BME280;50750;51.636;4.948;2022-09-02T10:30:21;101567.52;;;23.95;47.85
59873;BME280;50750;51.636;4.948;2022-09-02T10:46:35;101565.16;;;23.98;47.82
59873;BME280;50750;51.636;4.948;2022-09-02T10:52:08;101563.31;;;23.99;48.00
59873;BME280;50750;51.636;4.948;2022-09-02T10:57:42;101560.91;;;24.00;48.02
59873;BME280;50750;51.636;4.948;2022-09-02T11:00:18;101558.34;;;24.01;48.03
59873;BME280;50750;51.636;4.948;2022-09-02T11:05:37;101545.77;;;24.02;47.90
59873;BME280;50750;51.636;4.948;2022-09-02T11:08:15;101542.30;;;24.02;47.93
59873;BME280;50750;51.636;4.948;2022-09-02T11:13:27;101535.95;;;24.03;47.95
59873;BME280;50750;51.636;4.948;2022-09-02T11:16:27;101528.73;;;24.05;47.80
59873;BME280;50750;51.636;4.948;2022-09-02T11:19:09;101526.70;;;24.06;47.85
59873;BME280;50750;51.636;4.948;2022-09-02T11:26:59;101509.10;;;24.09;47.86
59873;BME280;50750;51.636;4.948;2022-09-02T11:32:09;101499.59;;;24.09;47.70
59873;BME280;50750;51.636;4.948;2022-09-02T11:34:45;101498.77;;;24.11;47.67
59873;BME280;50750;51.636;4.948;2022-09-02T11:37:33;101496.75;;;24.11;47.70
59873;BME280;50750;51.636;4.948;2022-09-02T11:45:30;101497.83;;;24.13;47.79
59873;BME280;50750;51.636;4.948;2022-09-02T11:48:45;101488.94;;;24.15;47.80
59873;BME280;50750;51.636;4.948;2022-09-02T11:53:36;101486.20;;;24.16;47.69
59873;BME280;50750;51.636;4.948;2022-09-02T11:58:47;101484.44;;;24.17;47.59
59873;BME280;50750;51.636;4.948;2022-09-02T12:04:05;101478.25;;;24.19;47.49
59873;BME280;50750;51.636;4.948;2022-09-02T12:06:31;101477.63;;;24.20;47.63
59873;BME280;50750;51.636;4.948;2022-09-02T12:09:02;101478.85;;;24.20;47.61
59873;BME280;50750;51.636;4.948;2022-09-02T12:17:03;101468.46;;;24.22;47.65
59873;BME280;50750;51.636;4.948;2022-09-02T12:19:50;101465.56;;;24.23;47.64
59873;BME280;50750;51.636;4.948;2022-09-02T12:25:04;101460.20;;;24.25;47.50
59873;BME280;50750;51.636;4.948;2022-09-02T12:27:35;101457.98;;;24.26;47.34
59873;BME280;50750;51.636;4.948;2022-09-02T12:30:07;101454.88;;;24.27;47.50
59873;BME280;50750;51.636;4.948;2022-09-02T12:40:37;101448.36;;;24.30;47.64
59873;BME280;50750;51.636;4.948;2022-09-02T12:43:21;101443.30;;;24.31;47.61
59873;BME280;50750;51.636;4.948;2022-09-02T12:45:53;101442.56;;;24.31;47.74
59873;BME280;50750;51.636;4.948;2022-09-02T12:48:25;101439.13;;;24.32;47.53
59873;BME280;50750;51.636;4.948;2022-09-02T12:50:55;101437.83;;;24.32;47.64
59873;BME280;50750;51.636;4.948;2022-09-02T12:55:56;101429.44;;;24.34;47.68
59873;BME280;50750;51.636;4.948;2022-09-02T12:58:24;101428.11;;;24.35;47.57
59873;BME280;50750;51.636;4.948;2022-09-02T13:01:04;101431.44;;;24.36;47.51
59873;BME280;50750;51.636;4.948;2022-09-02T13:04:07;101424.42;;;24.36;47.49
59873;BME280;50750;51.636;4.948;2022-09-02T13:07:50;101424.73;;;24.37;47.70
59873;BME280;50750;51.636;4.948;2022-09-02T13:09:58;101423.40;;;24.38;47.55
59873;BME280;50750;51.636;4.948;2022-09-02T13:13:32;101419.05;;;24.39;47.60
59873;BME280;50750;51.636;4.948;2022-09-02T13:21:20;101414.87;;;24.42;47.63
59873;BME280;50750;51.636;4.948;2022-09-02T13:30:51;101411.48;;;24.44;47.62
59873;BME280;50750;51.636;4.948;2022-09-02T13:33:21;101415.16;;;24.45;47.63
59873;BME280;50750;51.636;4.948;2022-09-02T13:35:53;101410.98;;;24.46;47.56
59873;BME280;50750;51.636;4.948;2022-09-02T13:38:23;101405.53;;;24.47;47.75
59873;BME280;50750;51.636;4.948;2022-09-02T13:40:50;101405.27;;;24.48;47.55
59873;BME280;50750;51.636;4.948;2022-09-02T13:43:19;101406.42;;;24.49;47.59
59873;BME280;50750;51.636;4.948;2022-09-02T13:45:47;101404.94;;;24.50;47.62
59873;BME280;50750;51.636;4.948;2022-09-02T13:48:25;101396.67;;;24.51;47.58
59873;BME280;50750;51.636;4.948;2022-09-02T13:50:58;101393.54;;;24.52;47.56
59873;BME280;50750;51.636;4.948;2022-09-02T13:53:36;101391.71;;;24.52;47.67
59873;BME280;50750;51.636;4.948;2022-09-02T13:56:06;101391.48;;;24.53;47.55
59873;BME280;50750;51.636;4.948;2022-09-02T13:58:36;101389.98;;;24.54;47.41
59873;BME280;50750;51.636;4.948;2022-09-02T14:01:35;101387.81;;;24.54;47.43
59873;BME280;50750;51.636;4.948;2022-09-02T14:04:05;101380.43;;;24.54;47.33
59873;BME280;50750;51.636;4.948;2022-09-02T14:06:37;101384.87;;;24.55;47.23
59873;BME280;50750;51.636;4.948;2022-09-02T14:09:09;101379.65;;;24.55;47.34
59873;BME280;50750;51.636;4.948;2022-09-02T14:11:42;101376.54;;;24.56;47.33
59873;BME280;50750;51.636;4.948;2022-09-02T14:14:21;101366.63;;;24.57;47.31
59873;BME280;50750;51.636;4.948;2022-09-02T14:16:48;101361.88;;;24.58;47.30
59873;BME280;50750;51.636;4.948;2022-09-02T14:21:55;101357.50;;;24.59;47.38
59873;BME280;50750;51.636;4.948;2022-09-02T14:24:26;101352.28;;;24.59;47.36
59873;BME280;50750;51.636;4.948;2022-09-02T14:26:57;101347.92;;;24.60;47.11
59873;BME280;50750;51.636;4.948;2022-09-02T14:29:27;101342.52;;;24.60;47.22
59873;BME280;50750;51.636;4.948;2022-09-02T14:37:00;101338.25;;;24.62;47.05
59873;BME280;50750;51.636;4.948;2022-09-02T14:39:26;101336.38;;;24.63;47.04
59873;BME280;50750;51.636;4.948;2022-09-02T14:41:54;101336.70;;;24.63;47.08
59873;BME280;50750;51.636;4.948;2022-09-02T14:44:33;101334.71;;;24.64;47.18
59873;BME280;50750;51.636;4.948;2022-09-02T14:47:04;101331.95;;;24.65;47.25
59873;BME280;50750;51.636;4.948;2022-09-02T14:49:46;101329.77;;;24.65;47.11
59873;BME280;50750;51.636;4.948;2022-09-02T14:52:27;101327.39;;;24.65;47.29
59873;BME280;50750;51.636;4.948;2022-09-02T14:54:56;101327.55;;;24.66;47.32
59873;BME280;50750;51.636;4.948;2022-09-02T14:57:25;101331.45;;;24.66;47.18
59873;BME280;50750;51.636;4.948;2022-09-02T15:00:03;101328.57;;;24.66;47.30
59873;BME280;50750;51.636;4.948;2022-09-02T15:02:34;101324.80;;;24.67;47.25
59873;BME280;50750;51.636;4.948;2022-09-02T15:05:04;101321.14;;;24.67;47.24